createdAt,value
2023-02-05T00:00:14.253Z,102145.13
2023-02-05T00:01:08.312Z,102121.38
2023-02-05T00:01:49.292Z,102141.69
2023-02-05T00:02:29.376Z,102138.41
2023-02-05T00:03:10.316Z,102144.69
2023-02-05T00:03:50.337Z,102128.00
2023-02-05T00:04:30.248Z,102126.22
2023-02-05T00:05:10.363Z,102146.31
2023-02-05T00:05:50.277Z,102116.66
2023-02-05T00:06:30.305Z,102133.09
2023-02-05T00:07:13.248Z,102146.41
2023-02-05T00:07:53.306Z,102156.06
2023-02-05T00:08:34.259Z,102135.72
2023-02-05T00:09:14.329Z,102150.53
2023-02-05T00:09:54.249Z,102133.00
2023-02-05T00:10:34.331Z,102155.16
2023-02-05T00:11:18.243Z,102112.94
2023-02-05T00:11:58.298Z,102144.69
2023-02-05T00:12:39.252Z,102139.09
2023-02-05T00:13:19.513Z,102144.75
2023-02-05T00:14:00.225Z,102153.19
2023-02-05T00:14:40.288Z,102151.56
2023-02-05T00:15:21.255Z,102132.97
2023-02-05T00:16:01.293Z,102150.63
2023-02-05T00:16:42.457Z,102155.81
2023-02-05T00:17:22.523Z,102151.22
2023-02-05T00:18:02.275Z,102146.00
2023-02-05T00:18:42.329Z,102147.78
2023-02-05T00:19:23.268Z,102141.44
2023-02-05T00:20:03.554Z,102156.44
2023-02-05T00:20:43.240Z,102156.44
2023-02-05T00:21:26.310Z,102151.91
2023-02-05T00:22:06.238Z,102130.88
2023-02-05T00:22:46.330Z,102142.31
2023-02-05T00:23:27.268Z,102152.59
2023-02-05T00:24:07.350Z,102123.53
2023-02-05T00:24:48.222Z,102152.72
2023-02-05T00:25:28.287Z,102150.78
2023-02-05T00:26:09.232Z,102138.41
2023-02-05T00:26:50.016Z,102158.69
2023-02-05T00:27:31.300Z,102135.78
2023-02-05T00:28:11.337Z,102140.31
2023-02-05T00:28:52.243Z,102141.38
2023-02-05T00:29:32.322Z,102136.84
2023-02-05T00:30:13.252Z,102134.22
2023-02-05T00:30:53.369Z,102153.53
2023-02-05T00:31:34.276Z,102152.66
2023-02-05T00:32:14.279Z,102151.72
2023-02-05T00:32:54.210Z,102140.78
2023-02-05T00:33:34.284Z,102149.44
2023-02-05T00:34:14.220Z,102146.78
2023-02-05T00:34:54.291Z,102144.66
2023-02-05T00:35:35.595Z,102140.91
2023-02-05T00:36:18.283Z,102172.75
2023-02-05T00:36:58.213Z,102146.91
2023-02-05T00:37:38.282Z,102155.44
2023-02-05T00:38:19.198Z,102165.34
2023-02-05T00:38:59.283Z,102149.56
2023-02-05T00:39:40.220Z,102144.66
2023-02-05T00:40:20.268Z,102156.78
2023-02-05T00:41:00.177Z,102148.41
2023-02-05T00:41:40.295Z,102162.16
2023-02-05T00:42:20.195Z,102149.91
2023-02-05T00:43:00.271Z,102176.09
2023-02-05T00:43:41.215Z,102175.88
2023-02-05T00:44:21.261Z,102160.13
2023-02-05T00:45:01.203Z,102172.53
2023-02-05T00:45:41.267Z,102147.28
2023-02-05T00:46:22.270Z,102174.50
2023-02-05T00:47:02.348Z,102159.25
2023-02-05T00:47:43.168Z,102150.69
2023-02-05T00:48:25.089Z,102153.06
2023-02-05T00:49:05.207Z,102183.88
2023-02-05T00:49:45.257Z,102148.03
2023-02-05T00:50:25.208Z,102165.69
2023-02-05T00:51:05.274Z,102163.75
2023-02-05T00:51:46.238Z,102163.53
2023-02-05T00:52:26.339Z,102153.81
2023-02-05T00:53:07.166Z,102165.16
2023-02-05T00:53:47.284Z,102156.41
2023-02-05T00:54:27.197Z,102150.38
2023-02-05T00:55:07.283Z,102149.47
2023-02-05T00:55:48.207Z,102168.84
2023-02-05T00:56:28.256Z,102165.25
2023-02-05T00:57:09.217Z,102164.56
2023-02-05T00:57:49.335Z,102163.44
2023-02-05T00:58:30.185Z,102176.78
2023-02-05T00:59:10.292Z,102179.78
2023-02-05T00:59:51.183Z,102147.63
2023-02-05T01:00:33.445Z,102162.59
2023-02-05T01:01:13.283Z,102157.97
2023-02-05T01:01:53.342Z,102160.38
2023-02-05T01:02:33.227Z,102174.47
2023-02-05T01:03:14.336Z,102170.75
2023-02-05T01:03:55.185Z,102168.56
2023-02-05T01:04:35.235Z,102162.50
2023-02-05T01:05:16.172Z,102157.06
2023-02-05T01:05:57.011Z,102157.00
2023-02-05T01:06:37.181Z,102179.75
2023-02-05T01:07:17.296Z,102170.09
2023-02-05T01:07:58.171Z,102175.25
2023-02-05T01:08:38.303Z,102152.31
2023-02-05T01:09:18.192Z,102168.00
2023-02-05T01:09:58.266Z,102167.28
2023-02-05T01:10:39.182Z,102161.03
2023-02-05T01:11:20.220Z,102184.97
2023-02-05T01:12:01.188Z,102162.63
2023-02-05T01:12:42.260Z,102168.56
2023-02-05T01:13:24.165Z,102179.03
2023-02-05T01:14:04.211Z,102161.34
2023-02-05T01:14:45.200Z,102184.47
2023-02-05T01:15:26.264Z,102158.00
2023-02-05T01:16:07.246Z,102155.44
2023-02-05T01:16:47.259Z,102153.50
2023-02-05T01:17:27.203Z,102165.84
2023-02-05T01:18:07.231Z,102174.66
2023-02-05T01:18:47.165Z,102174.50
2023-02-05T01:19:27.272Z,102166.59
2023-02-05T01:20:08.175Z,102164.22
2023-02-05T01:20:50.282Z,102171.22
2023-02-05T01:21:31.166Z,102185.31
2023-02-05T01:22:13.528Z,102156.88
2023-02-05T01:22:54.219Z,102152.56
2023-02-05T01:23:34.303Z,102150.78
2023-02-05T01:24:15.177Z,102170.06
2023-02-05T01:24:55.228Z,102162.94
2023-02-05T01:25:35.502Z,102155.06
2023-02-05T01:26:16.251Z,102176.06
2023-02-05T01:26:56.162Z,102183.97
2023-02-05T01:27:36.257Z,102178.81
2023-02-05T01:28:17.293Z,102175.09
2023-02-05T01:28:57.247Z,102148.72
2023-02-05T01:29:38.167Z,102167.06
2023-02-05T01:30:19.222Z,102176.81
2023-02-05T01:30:59.240Z,102176.66
2023-02-05T01:31:39.336Z,102173.91
2023-02-05T01:32:20.156Z,102157.19
2023-02-05T01:33:00.222Z,102160.69
2023-02-05T01:33:40.183Z,102175.47
2023-02-05T01:34:20.272Z,102167.44
2023-02-05T01:35:00.170Z,102173.81
2023-02-05T01:35:40.215Z,102137.81
2023-02-05T01:36:21.142Z,102167.69
2023-02-05T01:37:01.208Z,102176.56
2023-02-05T01:37:42.138Z,102143.22
2023-02-05T01:38:22.539Z,102159.00
2023-02-05T01:39:02.179Z,102172.09
2023-02-05T01:39:42.216Z,102167.59
2023-02-05T01:40:25.178Z,102149.06
2023-02-05T01:41:07.113Z,102139.66
2023-02-05T01:41:49.141Z,102162.28
2023-02-05T01:42:31.842Z,102158.88
2023-02-05T01:43:19.161Z,102173.06
2023-02-05T01:44:29.164Z,102170.16
2023-02-05T01:45:39.158Z,102173.69
2023-02-05T01:46:40.215Z,102148.97
2023-02-05T01:47:34.151Z,102167.44
2023-02-05T01:48:28.156Z,102161.25
2023-02-05T01:49:31.162Z,102138.72
2023-02-05T01:50:26.139Z,102155.97
2023-02-05T01:51:22.133Z,102153.09
2023-02-05T01:52:29.166Z,102168.97
2023-02-05T01:53:29.131Z,102168.13
2023-02-05T01:54:23.140Z,102161.06
2023-02-05T01:55:03.147Z,102153.00
2023-02-05T01:55:56.290Z,102168.94
2023-02-05T01:56:48.193Z,102149.34
2023-02-05T01:57:30.228Z,102166.88
2023-02-05T01:58:11.104Z,102147.50
2023-02-05T01:59:03.204Z,102172.06
2023-02-05T01:59:46.114Z,102166.81
2023-02-05T02:00:28.136Z,102167.34
2023-02-05T02:01:02.186Z,102149.81
2023-02-05T02:01:50.193Z,102168.19
2023-02-05T02:02:24.195Z,102140.78
2023-02-05T02:03:12.112Z,102161.09
2023-02-05T02:03:46.194Z,102170.75
2023-02-05T02:04:48.163Z,102153.06
2023-02-05T02:05:24.211Z,102174.13
2023-02-05T02:06:05.181Z,102163.81
2023-02-05T02:06:45.176Z,102161.34
2023-02-05T02:07:29.135Z,102169.88
2023-02-05T02:08:09.215Z,102178.75
2023-02-05T02:08:49.151Z,102177.22
2023-02-05T02:09:29.256Z,102162.44
2023-02-05T02:10:11.098Z,102165.59
2023-02-05T02:10:52.172Z,102173.41
2023-02-05T02:11:33.121Z,102169.25
2023-02-05T02:12:18.176Z,102173.38
2023-02-05T02:12:59.106Z,102169.81
2023-02-05T02:13:41.165Z,102148.84
2023-02-05T02:14:22.094Z,102177.63
2023-02-05T02:15:07.171Z,102175.97
2023-02-05T02:15:48.131Z,102170.63
2023-02-05T02:16:28.159Z,102163.53
2023-02-05T02:17:10.108Z,102154.75
2023-02-05T02:17:54.228Z,102174.13
2023-02-05T02:18:35.087Z,102152.13
2023-02-05T02:19:39.162Z,102166.97
2023-02-05T02:20:33.090Z,102177.53
2023-02-05T02:21:26.536Z,102189.84
2023-02-05T02:22:57.098Z,102139.94
2023-02-05T02:24:47.138Z,102181.25
2023-02-05T02:26:24.099Z,102178.50
2023-02-05T02:27:43.242Z,102187.22
2023-02-05T02:29:01.092Z,102188.00
2023-02-05T02:30:02.194Z,102187.19
2023-02-05T02:30:52.196Z,102189.06
2023-02-05T02:31:51.286Z,102189.00
2023-02-05T02:32:47.093Z,102188.06
2023-02-05T02:33:50.172Z,102192.38
2023-02-05T02:34:43.109Z,102187.91
2023-02-05T02:35:39.156Z,102186.25
2023-02-05T02:36:49.065Z,102181.00
2023-02-05T02:37:40.130Z,102183.63
2023-02-05T02:38:45.077Z,102178.25
2023-02-05T02:39:30.165Z,102177.25
2023-02-05T02:40:48.100Z,102182.28
2023-02-05T02:41:41.148Z,102180.66
2023-02-05T02:42:41.050Z,102192.13
2023-02-05T02:43:34.393Z,102178.91
2023-02-05T02:44:34.063Z,102154.25
2023-02-05T02:45:16.124Z,102161.28
2023-02-05T02:46:10.087Z,102169.16
2023-02-05T02:46:55.274Z,102158.59
2023-02-05T02:47:42.060Z,102183.97
2023-02-05T02:48:22.115Z,102175.97
2023-02-05T02:49:07.076Z,102168.91
2023-02-05T02:50:09.114Z,102155.66
2023-02-05T02:50:54.306Z,102171.63
2023-02-05T02:51:44.088Z,102162.72
2023-02-05T02:52:21.167Z,102172.31
2023-02-05T02:53:35.063Z,102182.81
2023-02-05T02:54:16.190Z,102153.75
2023-02-05T02:55:04.250Z,102174.81
2023-02-05T02:55:43.816Z,102173.81
2023-02-05T02:56:34.248Z,102158.88
2023-02-05T02:57:17.061Z,102170.13
2023-02-05T02:58:11.035Z,102178.88
2023-02-05T02:59:11.077Z,102163.78
2023-02-05T03:00:09.057Z,102170.94
2023-02-05T03:01:04.122Z,102163.69
2023-02-05T03:02:03.069Z,102177.81
2023-02-05T03:02:44.332Z,102163.88
2023-02-05T03:03:29.140Z,102172.69
2023-02-05T03:04:22.031Z,102184.28
2023-02-05T03:05:08.178Z,102172.25
2023-02-05T03:05:50.055Z,102180.28
2023-02-05T03:06:30.124Z,102180.06
2023-02-05T03:07:24.053Z,102188.81
2023-02-05T03:08:13.118Z,102181.75
2023-02-05T03:09:08.127Z,102191.47
2023-02-05T03:10:47.023Z,102187.06
2023-02-05T03:11:22.193Z,102178.28
2023-02-05T03:12:11.055Z,102172.88
2023-02-05T03:12:45.108Z,102157.13
2023-02-05T03:13:32.104Z,102150.09
2023-02-05T03:14:06.158Z,102174.53
2023-02-05T03:14:54.066Z,102176.28
2023-02-05T03:15:28.120Z,102162.22
2023-02-05T03:16:16.092Z,102180.69
2023-02-05T03:16:50.097Z,102184.25
2023-02-05T03:17:38.038Z,102163.03
2023-02-05T03:18:12.138Z,102183.25
2023-02-05T03:18:53.070Z,102169.25
2023-02-05T03:19:33.112Z,102172.00
2023-02-05T03:20:29.040Z,102157.16
2023-02-05T03:21:48.110Z,102184.59
2023-02-05T03:22:28.094Z,102189.06
2023-02-05T03:23:08.357Z,102166.03
2023-02-05T03:23:49.035Z,102180.16
2023-02-05T03:24:29.072Z,102185.53
2023-02-05T03:25:03.107Z,102174.00
2023-02-05T03:25:50.042Z,102188.09
2023-02-05T03:26:40.156Z,102183.53
2023-02-05T03:27:28.032Z,102187.94
2023-02-05T03:28:02.127Z,102181.91
2023-02-05T03:28:49.031Z,102194.50
2023-02-05T03:29:45.059Z,102194.19
2023-02-05T03:30:57.140Z,102186.28
2023-02-05T03:32:40.032Z,102197.84
2023-02-05T03:34:11.030Z,102203.22
2023-02-05T03:35:56.042Z,102194.38
2023-02-05T03:37:11.012Z,102188.34
2023-02-05T03:38:48.030Z,102166.34
2023-02-05T03:40:14.013Z,102196.25
2023-02-05T03:42:05.049Z,102196.19
2023-02-05T03:43:32.014Z,102187.22
2023-02-05T03:44:52.008Z,102146.97
2023-02-05T03:45:57.073Z,102173.34
2023-02-05T03:47:30.053Z,102194.44
2023-02-05T03:48:56.002Z,102187.38
2023-02-05T03:50:15.018Z,102192.63
2023-02-05T03:51:33.019Z,102170.53
2023-02-05T03:52:43.039Z,102184.53
2023-02-05T03:54:06.026Z,102172.41
2023-02-05T03:55:08.992Z,102176.00
2023-02-05T03:56:14.982Z,102179.47
2023-02-05T03:57:14.996Z,102189.19
2023-02-05T03:58:21.020Z,102191.91
2023-02-05T03:58:59.128Z,102178.72
2023-02-05T03:59:47.016Z,102190.28
2023-02-05T04:00:21.081Z,102179.75
2023-02-05T04:01:08.016Z,102169.88
2023-02-05T04:01:42.074Z,102198.06
2023-02-05T04:02:30.043Z,102180.38
2023-02-05T04:03:04.050Z,102155.75
2023-02-05T04:03:45.008Z,102184.69
2023-02-05T04:04:25.063Z,102193.53
2023-02-05T04:05:07.012Z,102172.34
2023-02-05T04:05:47.093Z,102182.94
2023-02-05T04:06:26.981Z,102170.63
2023-02-05T04:07:07.045Z,102182.03
2023-02-05T04:07:47.977Z,102165.34
2023-02-05T04:08:28.039Z,102175.03
2023-02-05T04:09:08.027Z,102172.44
2023-02-05T04:09:48.033Z,102183.84
2023-02-05T04:10:27.977Z,102184.69
2023-02-05T04:11:09.422Z,102194.50
2023-02-05T04:11:49.016Z,102155.72
2023-02-05T04:12:29.076Z,102195.25
2023-02-05T04:13:08.975Z,102183.00
2023-02-05T04:13:49.124Z,102202.38
2023-02-05T04:14:29.002Z,102197.16
2023-02-05T04:15:13.072Z,102208.63
2023-02-05T04:15:55.954Z,102205.09
2023-02-05T04:16:36.086Z,102194.53
2023-02-05T04:17:18.982Z,102209.63
2023-02-05T04:17:59.036Z,102217.63
2023-02-05T04:18:38.965Z,102208.91
2023-02-05T04:19:19.036Z,102189.56
2023-02-05T04:19:59.086Z,102200.22
2023-02-05T04:20:39.037Z,102210.69
2023-02-05T04:21:18.948Z,102214.22
2023-02-05T04:21:59.005Z,102200.25
2023-02-05T04:22:41.960Z,102215.25
2023-02-05T04:23:22.066Z,102213.47
2023-02-05T04:24:02.043Z,102207.38
2023-02-05T04:24:42.028Z,102212.78
2023-02-05T04:25:22.968Z,102217.16
2023-02-05T04:26:03.030Z,102219.84
2023-02-05T04:26:42.951Z,102213.75
2023-02-05T04:27:23.062Z,102233.28
2023-02-05T04:28:02.957Z,102238.63
2023-02-05T04:28:43.008Z,102222.78
2023-02-05T04:29:22.934Z,102232.50
2023-02-05T04:30:03.077Z,102242.34
2023-02-05T04:30:44.032Z,102201.00
2023-02-05T04:31:25.082Z,102232.69
2023-02-05T04:32:05.953Z,102234.50
2023-02-05T04:32:46.032Z,102208.00
2023-02-05T04:33:25.954Z,102213.19
2023-02-05T04:34:06.014Z,102220.22
2023-02-05T04:34:45.945Z,102226.28
2023-02-05T04:35:26.028Z,102234.28
2023-02-05T04:36:06.993Z,102205.31
2023-02-05T04:36:47.116Z,102230.75
2023-02-05T04:37:26.952Z,102221.94
2023-02-05T04:38:07.022Z,102234.16
2023-02-05T04:38:46.970Z,102214.69
2023-02-05T04:39:27.094Z,102213.84
2023-02-05T04:40:06.962Z,102218.19
2023-02-05T04:40:47.020Z,102211.22
2023-02-05T04:41:26.976Z,102220.00
2023-02-05T04:42:07.015Z,102234.88
2023-02-05T04:42:46.948Z,102226.50
2023-02-05T04:43:27.038Z,102220.28
2023-02-05T04:44:06.962Z,102227.53
2023-02-05T04:44:47.020Z,102231.00
2023-02-05T04:45:27.938Z,102215.09
2023-02-05T04:46:18.664Z,102234.56
2023-02-05T04:46:58.966Z,102214.22
2023-02-05T04:47:40.122Z,102230.91
2023-02-05T04:48:19.937Z,102216.91
2023-02-05T04:49:00.005Z,102204.59
2023-02-05T04:49:40.950Z,102193.13
2023-02-05T04:50:21.993Z,102238.34
2023-02-05T04:51:02.923Z,102233.94
2023-02-05T04:51:42.988Z,102225.97
2023-02-05T04:52:22.944Z,102222.47
2023-02-05T04:53:03.078Z,102225.03
2023-02-05T04:53:43.924Z,102222.22
2023-02-05T04:54:24.035Z,102226.69
2023-02-05T04:55:03.919Z,102237.25
2023-02-05T04:55:44.008Z,102195.16
2023-02-05T04:56:24.945Z,102214.34
2023-02-05T04:57:05.000Z,102210.94
2023-02-05T04:57:44.940Z,102212.72
2023-02-05T04:58:24.976Z,102230.44
2023-02-05T04:59:04.914Z,102227.63
2023-02-05T04:59:45.016Z,102224.00
2023-02-05T05:00:25.924Z,102229.16
2023-02-05T05:01:06.019Z,102226.41
2023-02-05T05:01:46.899Z,102226.34
2023-02-05T05:02:27.099Z,102201.75
2023-02-05T05:03:06.956Z,102209.63
2023-02-05T05:03:48.001Z,102204.44
2023-02-05T05:04:28.938Z,102218.50
2023-02-05T05:05:09.070Z,102187.75
2023-02-05T05:05:48.918Z,102218.72
2023-02-05T05:06:28.991Z,102220.53
2023-02-05T05:07:08.926Z,102210.78
2023-02-05T05:07:48.989Z,102208.19
2023-02-05T05:08:29.957Z,102202.97
2023-02-05T05:09:09.986Z,102216.31
2023-02-05T05:09:52.381Z,102233.25
2023-02-05T05:10:32.999Z,102225.22
2023-02-05T05:11:24.934Z,102216.47
2023-02-05T05:12:04.972Z,102228.69
2023-02-05T05:12:45.933Z,102216.47
2023-02-05T05:13:25.982Z,102229.56
2023-02-05T05:14:06.956Z,102224.16
2023-02-05T05:14:46.959Z,102228.53
2023-02-05T05:15:26.907Z,102214.38
2023-02-05T05:16:07.043Z,102213.44
2023-02-05T05:16:46.912Z,102231.97
2023-02-05T05:17:27.021Z,102223.06
2023-02-05T05:18:06.906Z,102226.56
2023-02-05T05:18:47.971Z,102219.44
2023-02-05T05:19:27.914Z,102219.50
2023-02-05T05:20:08.009Z,102223.81
2023-02-05T05:20:47.882Z,102227.44
2023-02-05T05:21:27.953Z,102227.41
2023-02-05T05:22:07.912Z,102208.03
2023-02-05T05:22:47.975Z,102223.84
2023-02-05T05:23:28.924Z,102222.97
2023-02-05T05:24:08.982Z,102219.44
2023-02-05T05:24:48.914Z,102226.53
2023-02-05T05:25:30.244Z,102234.44
2023-02-05T05:26:12.880Z,102219.38
2023-02-05T05:26:52.955Z,102236.13
2023-02-05T05:27:32.891Z,102225.59
2023-02-05T05:28:13.035Z,102218.50
2023-02-05T05:28:52.917Z,102214.16
2023-02-05T05:29:33.111Z,102230.88
2023-02-05T05:30:13.902Z,102245.91
2023-02-05T05:30:54.993Z,102247.63
2023-02-05T05:31:34.930Z,102247.59
2023-02-05T05:32:14.989Z,102239.72
2023-02-05T05:32:54.874Z,102256.56
2023-02-05T05:33:34.947Z,102257.66
2023-02-05T05:34:15.864Z,102230.47
2023-02-05T05:34:57.119Z,102262.94
2023-02-05T05:35:37.906Z,102249.81
2023-02-05T05:36:17.958Z,102267.41
2023-02-05T05:36:59.867Z,102267.38
2023-02-05T05:37:39.954Z,102258.56
2023-02-05T05:38:19.896Z,102256.16
2023-02-05T05:39:19.903Z,102260.50
2023-02-05T05:40:18.871Z,102259.53
2023-02-05T05:41:17.935Z,102253.34
2023-02-05T05:42:10.712Z,102259.50
2023-02-05T05:43:16.893Z,102259.81
2023-02-05T05:43:50.948Z,102260.78
2023-02-05T05:44:37.887Z,102236.94
2023-02-05T05:45:11.936Z,102235.06
2023-02-05T05:45:59.902Z,102271.13
2023-02-05T05:46:40.906Z,102243.88
2023-02-05T05:47:34.896Z,102266.75
2023-02-05T05:48:28.889Z,102275.81
2023-02-05T05:49:22.886Z,102255.53
2023-02-05T05:50:17.882Z,102264.44
2023-02-05T05:50:58.606Z,102274.97
2023-02-05T05:51:45.882Z,102257.38
2023-02-05T05:52:19.582Z,102270.66
2023-02-05T05:53:06.851Z,102268.84
2023-02-05T05:53:40.558Z,102257.59
2023-02-05T05:54:28.865Z,102283.13
2023-02-05T05:55:02.607Z,102251.50
2023-02-05T05:55:49.862Z,102265.69
2023-02-05T05:56:23.745Z,102281.72
2023-02-05T05:57:10.880Z,102279.25
2023-02-05T05:57:44.576Z,102251.94
2023-02-05T05:58:32.863Z,102265.19
2023-02-05T05:59:06.536Z,102281.22
2023-02-05T05:59:53.851Z,102281.13
2023-02-05T06:00:27.548Z,102282.91
2023-02-05T06:01:14.866Z,102271.44
2023-02-05T06:01:48.559Z,102278.47
2023-02-05T06:02:36.948Z,102270.47
2023-02-05T06:03:11.249Z,102281.00
2023-02-05T06:03:57.858Z,102284.44
2023-02-05T06:04:31.684Z,102269.53
2023-02-05T06:05:19.842Z,102283.75
2023-02-05T06:05:53.588Z,102278.28
2023-02-05T06:06:41.840Z,102278.34
2023-02-05T06:07:15.621Z,102273.88
2023-02-05T06:07:55.862Z,102262.41
2023-02-05T06:08:30.026Z,102267.66
2023-02-05T06:09:03.658Z,102249.03
2023-02-05T06:09:43.834Z,102276.25
2023-02-05T06:10:18.914Z,102280.06
2023-02-05T06:10:52.605Z,102249.97
2023-02-05T06:11:32.873Z,102244.63
2023-02-05T06:12:06.917Z,102251.63
2023-02-05T06:12:40.563Z,102272.75
2023-02-05T06:13:21.835Z,102257.00
2023-02-05T06:13:55.938Z,102271.00
2023-02-05T06:14:29.624Z,102279.94
2023-02-05T06:15:10.847Z,102249.97
2023-02-05T06:15:44.912Z,102249.22
2023-02-05T06:16:18.657Z,102281.88
2023-02-05T06:17:01.832Z,102266.75
2023-02-05T06:17:35.884Z,102267.75
2023-02-05T06:18:09.524Z,102277.44
2023-02-05T06:18:50.877Z,102287.03
2023-02-05T06:19:24.905Z,102256.13
2023-02-05T06:19:58.564Z,102274.75
2023-02-05T06:20:38.844Z,102261.66
2023-02-05T06:21:12.938Z,102291.59
2023-02-05T06:21:46.559Z,102287.28
2023-02-05T06:22:26.815Z,102290.00
2023-02-05T06:23:00.905Z,102268.81
2023-02-05T06:23:34.702Z,102296.13
2023-02-05T06:24:14.836Z,102283.75
2023-02-05T06:24:48.908Z,102276.72
2023-02-05T06:25:22.531Z,102291.66
2023-02-05T06:26:03.812Z,102274.00
2023-02-05T06:26:37.915Z,102262.47
2023-02-05T06:27:11.539Z,102265.03
2023-02-05T06:27:51.871Z,102278.16
2023-02-05T06:28:25.892Z,102262.19
2023-02-05T06:29:03.097Z,102270.22
2023-02-05T06:29:42.822Z,102295.75
2023-02-05T06:30:17.880Z,102292.34
2023-02-05T06:30:52.648Z,102267.59
2023-02-05T06:31:32.875Z,102270.97
2023-02-05T06:32:06.925Z,102274.50
2023-02-05T06:32:40.495Z,102243.66
2023-02-05T06:33:20.822Z,102283.31
2023-02-05T06:33:54.883Z,102299.28
2023-02-05T06:34:28.558Z,102285.13
2023-02-05T06:35:09.843Z,102294.88
2023-02-05T06:35:43.892Z,102294.00
2023-02-05T06:36:17.527Z,102271.13
2023-02-05T06:36:57.799Z,102283.44
2023-02-05T06:37:46.826Z,102304.66
2023-02-05T06:38:21.550Z,102293.94
2023-02-05T06:39:02.798Z,102285.19
2023-02-05T06:39:37.465Z,102301.06
2023-02-05T06:40:18.832Z,102273.69
2023-02-05T06:40:58.890Z,102276.41
2023-02-05T06:41:38.817Z,102301.94
2023-02-05T06:42:18.899Z,102278.91
2023-02-05T06:42:59.815Z,102286.97
2023-02-05T06:43:40.867Z,102294.00
2023-02-05T06:44:20.797Z,102290.50
2023-02-05T06:45:00.894Z,102306.31
2023-02-05T06:45:40.860Z,102282.59
2023-02-05T06:46:20.903Z,102306.25
2023-02-05T06:47:00.820Z,102304.47
2023-02-05T06:47:41.862Z,102306.19
2023-02-05T06:48:21.828Z,102282.38
2023-02-05T06:49:01.874Z,102313.16
2023-02-05T06:49:41.812Z,102307.81
2023-02-05T06:50:22.872Z,102297.19
2023-02-05T06:51:02.826Z,102308.63
2023-02-05T06:51:43.925Z,102313.03
2023-02-05T06:52:23.780Z,102302.47
2023-02-05T06:53:03.983Z,102302.44
2023-02-05T06:53:43.825Z,102298.16
2023-02-05T06:54:24.059Z,102310.59
2023-02-05T06:55:03.780Z,102314.16
2023-02-05T06:55:44.935Z,102311.56
2023-02-05T06:56:24.798Z,102322.22
2023-02-05T06:57:05.075Z,102321.25
2023-02-05T06:57:44.787Z,102310.53
2023-02-05T06:58:24.847Z,102306.38
2023-02-05T06:59:04.765Z,102322.41
2023-02-05T06:59:45.859Z,102308.28
2023-02-05T07:00:25.839Z,102315.25
2023-02-05T07:01:05.928Z,102327.47
2023-02-05T07:01:45.933Z,102306.28
2023-02-05T07:02:48.933Z,102321.41
2023-02-05T07:03:35.782Z,102303.75
2023-02-05T07:04:09.841Z,102309.81
2023-02-05T07:04:56.781Z,102319.47
2023-02-05T07:05:30.845Z,102317.66
2023-02-05T07:06:17.808Z,102326.50
2023-02-05T07:06:58.820Z,102327.50
2023-02-05T07:07:52.840Z,102301.94
2023-02-05T07:08:47.809Z,102310.66
2023-02-05T07:09:41.768Z,102327.25
2023-02-05T07:10:35.777Z,102314.00
2023-02-05T07:11:29.770Z,102305.13
2023-02-05T07:12:16.815Z,102316.47
2023-02-05T07:12:50.884Z,102337.66
2023-02-05T07:13:37.785Z,102327.91
2023-02-05T07:14:11.825Z,102337.59
2023-02-05T07:14:58.790Z,102315.69
2023-02-05T07:15:33.132Z,102321.75
2023-02-05T07:16:20.832Z,102317.41
2023-02-05T07:16:54.849Z,102335.03
2023-02-05T07:17:41.776Z,102321.84
2023-02-05T07:18:15.859Z,102314.00
2023-02-05T07:19:04.790Z,102347.44
2023-02-05T07:19:38.858Z,102337.00
2023-02-05T07:20:25.772Z,102339.69
2023-02-05T07:20:59.834Z,102323.78
2023-02-05T07:21:46.784Z,102353.63
2023-02-05T07:22:21.862Z,102348.47
2023-02-05T07:23:01.826Z,102332.56
2023-02-05T07:23:42.834Z,102337.06
2023-02-05T07:24:22.777Z,102333.72
2023-02-05T07:25:04.564Z,102339.03
2023-02-05T07:25:44.792Z,102352.97
2023-02-05T07:26:24.851Z,102354.59
2023-02-05T07:27:05.772Z,102358.91
2023-02-05T07:27:45.834Z,102326.16
2023-02-05T07:28:25.840Z,102326.16
2023-02-05T07:29:06.821Z,102348.03
2023-02-05T07:29:46.769Z,102333.94
2023-02-05T07:30:26.816Z,102360.50
2023-02-05T07:31:12.856Z,102341.81
2023-02-05T07:31:52.889Z,102350.66
2023-02-05T07:32:32.766Z,102361.09
2023-02-05T07:33:12.825Z,102347.03
2023-02-05T07:33:53.993Z,102342.59
2023-02-05T07:34:33.836Z,102364.59
2023-02-05T07:35:14.761Z,102375.25
2023-02-05T07:35:54.880Z,102353.16
2023-02-05T07:36:34.748Z,102366.34
2023-02-05T07:37:14.808Z,102369.84
2023-02-05T07:37:54.740Z,102369.84
2023-02-05T07:38:34.823Z,102355.81
2023-02-05T07:39:14.787Z,102377.88
2023-02-05T07:39:54.856Z,102344.44
2023-02-05T07:40:34.740Z,102379.69
2023-02-05T07:41:17.850Z,102374.56
2023-02-05T07:41:59.756Z,102361.22
2023-02-05T07:42:39.954Z,102383.38
2023-02-05T07:43:19.726Z,102353.41
2023-02-05T07:44:00.794Z,102359.69
2023-02-05T07:44:40.744Z,102358.13
2023-02-05T07:45:20.806Z,102372.94
2023-02-05T07:46:04.744Z,102378.19
2023-02-05T07:46:44.885Z,102386.91
2023-02-05T07:47:24.734Z,102371.81
2023-02-05T07:48:04.839Z,102381.47
2023-02-05T07:48:45.718Z,102366.34
2023-02-05T07:49:25.783Z,102366.28
2023-02-05T07:50:05.760Z,102380.31
2023-02-05T07:50:50.808Z,102394.44
2023-02-05T07:51:31.743Z,102377.69
2023-02-05T07:52:25.743Z,102395.31
2023-02-05T07:53:19.743Z,102390.13
2023-02-05T07:54:13.872Z,102393.81
2023-02-05T07:55:07.738Z,102386.78
2023-02-05T07:56:01.731Z,102373.56
2023-02-05T07:56:59.735Z,102401.72
2023-02-05T07:57:54.729Z,102393.94
2023-02-05T07:58:48.766Z,102397.31
2023-02-05T07:59:42.744Z,102394.56
2023-02-05T08:00:31.778Z,102385.81
2023-02-05T08:01:09.897Z,102394.63
2023-02-05T08:01:56.721Z,102395.44
2023-02-05T08:02:30.769Z,102396.22
2023-02-05T08:03:17.700Z,102398.03
2023-02-05T08:03:51.784Z,102399.75
2023-02-05T08:04:38.746Z,102395.28
2023-02-05T08:05:12.862Z,102395.25
2023-02-05T08:05:53.756Z,102388.22
2023-02-05T08:06:33.797Z,102392.59
2023-02-05T08:07:13.715Z,102394.59
2023-02-05T08:07:53.787Z,102389.13
2023-02-05T08:08:33.694Z,102387.53
2023-02-05T08:09:14.431Z,102391.94
2023-02-05T08:09:55.691Z,102393.78
2023-02-05T08:10:35.768Z,102404.25
2023-02-05T08:11:21.744Z,102396.19
2023-02-05T08:12:01.791Z,102398.09
2023-02-05T08:12:41.702Z,102400.72
2023-02-05T08:13:21.770Z,102381.25
2023-02-05T08:14:02.698Z,102374.03
2023-02-05T08:14:43.831Z,102372.16
2023-02-05T08:15:24.690Z,102386.19
2023-02-05T08:16:04.804Z,102385.19
2023-02-05T08:16:44.707Z,102385.16
2023-02-05T08:17:24.799Z,102385.06
2023-02-05T08:18:05.736Z,102383.31
2023-02-05T08:18:45.892Z,102379.69
2023-02-05T08:19:26.726Z,102377.13
2023-02-05T08:20:09.704Z,102381.75
2023-02-05T08:20:50.687Z,102379.78
2023-02-05T08:21:30.798Z,102387.69